createdAt,value
2023-03-04T00:00:45.610Z,1.70
2023-03-04T00:05:47.387Z,1.70
2023-03-04T00:10:49.119Z,1.70
2023-03-04T00:15:51.382Z,1.80
2023-03-04T00:20:53.109Z,1.80
2023-03-04T00:25:54.958Z,1.70
2023-03-04T00:30:56.821Z,1.80
2023-03-04T00:35:58.868Z,1.70
2023-03-04T00:41:03.109Z,1.70
2023-03-04T00:46:05.191Z,1.70
2023-03-04T00:51:07.141Z,1.60
2023-03-04T00:56:08.912Z,1.50
2023-03-04T01:01:10.875Z,1.60
2023-03-04T01:06:13.021Z,1.50
2023-03-04T01:11:15.278Z,1.40
2023-03-04T01:16:17.316Z,1.30
2023-03-04T01:21:19.333Z,1.30
2023-03-04T01:26:21.115Z,1.30
2023-03-04T01:31:22.873Z,1.20
2023-03-04T01:36:24.803Z,1.20
2023-03-04T01:41:27.293Z,1.20
2023-03-04T01:46:30.806Z,1.20
2023-03-04T01:51:32.595Z,1.30
2023-03-04T01:56:39.344Z,1.20
2023-03-04T02:01:48.829Z,1.30
2023-03-04T02:06:51.961Z,1.60
2023-03-04T02:11:55.319Z,1.80
2023-03-04T02:16:57.148Z,1.80
2023-03-04T02:21:58.952Z,1.80
2023-03-04T02:27:00.809Z,1.80
2023-03-04T02:32:02.687Z,1.80
2023-03-04T02:37:04.725Z,1.90
2023-03-04T02:42:07.250Z,1.90
2023-03-04T02:47:11.363Z,1.80
2023-03-04T02:52:22.291Z,1.80
2023-03-04T02:57:24.087Z,1.80
2023-03-04T03:02:27.305Z,1.70
2023-03-04T03:07:29.130Z,1.60
2023-03-04T03:12:30.907Z,1.60
2023-03-04T03:17:32.738Z,1.50
2023-03-04T03:22:34.457Z,1.50
2023-03-04T03:27:36.516Z,1.50
2023-03-04T03:32:38.362Z,1.50
2023-03-04T03:37:40.208Z,1.40
2023-03-04T03:42:41.959Z,1.30
2023-03-04T03:47:43.725Z,1.20
2023-03-04T03:52:45.474Z,1.20
2023-03-04T03:57:47.227Z,1.30
2023-03-04T04:02:49.087Z,1.30
2023-03-04T04:07:53.010Z,1.30
2023-03-04T04:12:55.721Z,1.20
2023-03-04T04:17:57.418Z,1.20
2023-03-04T04:22:59.218Z,1.10
2023-03-04T04:28:00.958Z,1.00
2023-03-04T04:33:04.734Z,0.90
2023-03-04T04:38:08.110Z,0.80
2023-03-04T04:43:09.803Z,0.90
2023-03-04T04:48:11.504Z,0.90
2023-03-04T04:53:14.362Z,0.90
2023-03-04T04:58:16.105Z,0.90
2023-03-04T05:03:18.692Z,0.90
2023-03-04T05:08:20.597Z,0.90
2023-03-04T05:13:22.539Z,1.00
2023-03-04T05:18:25.723Z,0.80
2023-03-04T05:23:29.148Z,0.60
2023-03-04T05:28:30.965Z,0.60
2023-03-04T05:33:32.797Z,0.60
2023-03-04T05:38:35.021Z,0.70
2023-03-04T05:43:38.339Z,0.70
2023-03-04T05:48:40.072Z,0.70
2023-03-04T05:53:42.070Z,0.70
2023-03-04T05:58:44.951Z,0.60
2023-03-04T06:03:48.715Z,0.60
2023-03-04T06:08:50.488Z,0.50
2023-03-04T06:13:52.289Z,0.60
2023-03-04T06:18:54.016Z,0.50
2023-03-04T06:23:55.777Z,0.30
2023-03-04T06:28:57.741Z,0.30
2023-03-04T06:33:59.519Z,0.50
2023-03-04T06:39:05.722Z,0.50
2023-03-04T06:44:07.553Z,0.40
2023-03-04T06:49:09.773Z,0.50
2023-03-04T06:54:11.613Z,0.70
2023-03-04T06:59:13.456Z,1.20
2023-03-04T07:04:15.265Z,1.90
2023-03-04T07:09:17.621Z,1.30
2023-03-04T07:14:19.498Z,3.30
2023-03-04T07:19:21.498Z,3.00
2023-03-04T07:24:23.318Z,2.10
2023-03-04T07:29:25.020Z,1.60
2023-03-04T07:34:26.984Z,1.40
2023-03-04T07:39:28.889Z,1.40
2023-03-04T07:44:30.779Z,1.90
2023-03-04T07:49:32.499Z,2.60
2023-03-04T07:54:34.579Z,2.70
2023-03-04T07:59:36.382Z,1.60
2023-03-04T08:04:38.324Z,1.20
2023-03-04T08:09:40.309Z,2.00
2023-03-04T08:14:42.037Z,2.10
2023-03-04T08:19:43.979Z,1.60
2023-03-04T08:24:45.671Z,1.70
2023-03-04T08:29:47.380Z,1.10
2023-03-04T08:34:49.141Z,1.90
2023-03-04T08:39:51.022Z,1.50
2023-03-04T08:44:52.795Z,0.80
2023-03-04T08:49:54.711Z,1.60
2023-03-04T08:54:56.981Z,1.50
2023-03-04T08:59:58.737Z,1.30
2023-03-04T09:05:00.461Z,1.00
2023-03-04T09:10:02.231Z,0.90
2023-03-04T09:15:11.675Z,0.50
2023-03-04T09:20:13.987Z,0.40
2023-03-04T09:25:15.837Z,0.10
2023-03-04T09:30:17.960Z,0.30
2023-03-04T09:35:19.909Z,0.30
2023-03-04T09:40:24.910Z,0.20
2023-03-04T09:45:40.961Z,0.50
2023-03-04T09:51:06.592Z,0.70
2023-03-04T09:56:11.628Z,0.60
2023-03-04T10:01:51.082Z,0.50
2023-03-04T10:06:54.758Z,0.40
2023-03-04T10:12:12.060Z,0.40
2023-03-04T10:17:43.150Z,0.60
2023-03-04T10:22:56.291Z,0.50
2023-03-04T10:28:06.002Z,0.20
2023-03-04T10:33:14.555Z,0.20
2023-03-04T10:38:16.565Z,0.20
2023-03-04T10:43:20.445Z,0.30
2023-03-04T10:48:28.933Z,0.30
2023-03-04T10:53:30.708Z,0.10
2023-03-04T10:58:32.460Z,0.00
2023-03-04T11:03:36.524Z,-0.10
2023-03-04T11:08:41.217Z,-0.10
2023-03-04T11:13:52.662Z,-0.10
2023-03-04T11:19:00.503Z,0.00
2023-03-04T11:24:28.862Z,0.00
2023-03-04T11:29:57.849Z,-0.10
2023-03-04T11:35:18.379Z,-0.10
2023-03-04T11:41:13.214Z,-0.10
2023-03-04T11:46:27.303Z,-0.10
2023-03-04T11:51:48.243Z,-0.20
2023-03-04T11:56:53.666Z,-0.10
2023-03-04T12:01:58.114Z,-0.20
2023-03-04T12:07:20.595Z,-0.10
2023-03-04T12:12:54.029Z,-0.20
2023-03-04T12:18:08.083Z,-0.20
2023-03-04T12:23:33.258Z,-0.20
2023-03-04T12:29:03.895Z,-0.10
2023-03-04T12:34:14.528Z,-0.10
2023-03-04T12:39:36.806Z,-0.20
2023-03-04T12:44:50.645Z,-0.10
2023-03-04T12:49:55.509Z,-0.10
2023-03-04T12:55:02.814Z,-0.10
2023-03-04T13:00:25.767Z,0.10
2023-03-04T13:05:46.850Z,0.20
2023-03-04T13:10:51.036Z,0.40
2023-03-04T13:16:03.850Z,0.50
2023-03-04T13:21:25.841Z,0.60
2023-03-04T13:26:32.824Z,0.60
2023-03-04T13:32:05.585Z,0.60
2023-03-04T13:37:29.991Z,0.60
2023-03-04T13:42:40.964Z,0.70
2023-03-04T13:47:45.415Z,0.70
2023-03-04T13:52:47.597Z,0.70
2023-03-04T13:57:51.043Z,0.70
2023-03-04T14:02:52.811Z,0.70
2023-03-04T14:07:54.634Z,0.70
2023-03-04T14:12:58.881Z,0.70
2023-03-04T14:18:03.589Z,0.70
2023-03-04T14:23:34.045Z,0.70
2023-03-04T14:28:43.867Z,0.70
2023-03-04T14:33:51.997Z,0.70
2023-03-04T14:39:00.267Z,0.60
2023-03-04T14:44:22.365Z,0.60
2023-03-04T14:49:24.446Z,0.70
2023-03-04T14:54:38.393Z,0.70
2023-03-04T14:59:40.210Z,0.60
2023-03-04T15:04:42.145Z,0.60
2023-03-04T15:09:51.039Z,0.60
2023-03-04T15:14:58.882Z,0.60
2023-03-04T15:20:12.384Z,0.50
2023-03-04T15:25:20.388Z,0.60
2023-03-04T15:30:28.779Z,0.60
2023-03-04T15:35:31.974Z,0.50
2023-03-04T15:40:41.879Z,0.60
2023-03-04T15:45:44.343Z,0.60
2023-03-04T15:50:54.330Z,0.50
2023-03-04T15:55:56.279Z,0.40
2023-03-04T16:00:58.156Z,0.50
2023-03-04T16:06:00.707Z,0.60
2023-03-04T16:11:02.497Z,0.60
2023-03-04T16:16:04.568Z,0.60
2023-03-04T16:21:07.825Z,0.50
2023-03-04T16:26:14.141Z,0.50
2023-03-04T16:31:17.104Z,0.50
2023-03-04T16:36:20.759Z,0.40
2023-03-04T16:41:28.330Z,0.30
2023-03-04T16:46:30.263Z,0.30
2023-03-04T16:51:39.544Z,0.30
2023-03-04T16:56:41.429Z,0.30
2023-03-04T17:01:44.054Z,0.30
2023-03-04T17:06:46.070Z,0.40
2023-03-04T17:11:47.979Z,0.40
2023-03-04T17:16:49.733Z,0.40
2023-03-04T17:21:51.523Z,0.40
2023-03-04T17:26:53.422Z,0.40
2023-03-04T17:31:55.266Z,0.50
2023-03-04T17:36:57.042Z,0.50
2023-03-04T17:41:59.641Z,0.50
2023-03-04T17:47:01.376Z,0.50
2023-03-04T17:52:04.103Z,0.40
2023-03-04T17:57:06.054Z,0.40
2023-03-04T18:02:08.049Z,0.40
2023-03-04T18:07:09.824Z,0.40
2023-03-04T18:12:11.706Z,0.40
2023-03-04T18:17:13.418Z,0.30
2023-03-04T18:22:15.325Z,0.30
2023-03-04T18:27:17.247Z,0.30
2023-03-04T18:32:19.102Z,0.30
2023-03-04T18:37:21.057Z,0.30
2023-03-04T18:42:22.895Z,0.30
2023-03-04T18:47:26.090Z,0.30
2023-03-04T18:52:28.265Z,0.30
2023-03-04T18:57:30.372Z,0.30
2023-03-04T19:02:41.100Z,0.30
2023-03-04T19:07:42.985Z,0.30
2023-03-04T19:12:47.509Z,0.30
2023-03-04T19:17:49.445Z,0.30
2023-03-04T19:22:51.413Z,0.30
2023-03-04T19:27:55.345Z,0.20
2023-03-04T19:32:57.507Z,0.20
2023-03-04T19:38:00.480Z,0.20
2023-03-04T19:43:02.209Z,0.20
2023-03-04T19:48:04.338Z,0.30
2023-03-04T19:53:06.201Z,0.30
2023-03-04T19:58:08.250Z,0.30
2023-03-04T20:03:10.061Z,0.30
2023-03-04T20:08:11.824Z,0.30
2023-03-04T20:13:13.703Z,0.30
2023-03-04T20:18:15.542Z,0.30
2023-03-04T20:23:20.300Z,0.20
2023-03-04T20:28:23.178Z,0.30
2023-03-04T20:33:25.347Z,0.30
2023-03-04T20:38:27.158Z,0.20
2023-03-04T20:43:31.165Z,0.20
2023-03-04T20:48:34.078Z,0.20
2023-03-04T20:53:35.835Z,0.20
2023-03-04T20:58:37.855Z,0.20
2023-03-04T21:03:40.561Z,0.20
2023-03-04T21:08:43.687Z,0.20
2023-03-04T21:13:45.690Z,0.20
2023-03-04T21:18:47.946Z,0.20
2023-03-04T21:23:51.191Z,0.20
2023-03-04T21:28:54.219Z,0.20
2023-03-04T21:33:58.609Z,0.20
2023-03-04T21:39:00.376Z,0.20
2023-03-04T21:44:03.350Z,0.10
2023-03-04T21:49:05.829Z,0.10
2023-03-04T21:54:08.674Z,0.10
2023-03-04T21:59:13.177Z,0.20
2023-03-04T22:04:14.930Z,0.20
2023-03-04T22:09:16.860Z,0.20
2023-03-04T22:14:18.714Z,0.20
2023-03-04T22:19:20.499Z,0.20
2023-03-04T22:24:22.467Z,0.30
2023-03-04T22:29:24.204Z,0.30
2023-03-04T22:34:25.993Z,0.30
2023-03-04T22:39:28.083Z,0.30
2023-03-04T22:44:29.964Z,0.30
2023-03-04T22:49:33.210Z,0.30
2023-03-04T22:54:34.942Z,0.30
2023-03-04T22:59:37.022Z,0.30
2023-03-04T23:04:38.800Z,0.30
2023-03-04T23:09:40.618Z,0.20
2023-03-04T23:14:44.647Z,0.20
2023-03-04T23:19:46.532Z,0.30
2023-03-04T23:24:48.516Z,0.20
2023-03-04T23:29:50.261Z,0.20
2023-03-04T23:34:53.780Z,0.20
2023-03-04T23:39:55.718Z,0.20
2023-03-04T23:44:57.446Z,0.20
2023-03-04T23:50:00.236Z,0.10
2023-03-04T23:55:02.145Z,0.10
